sensor_id;sensor_type;location;lat;lon;timestamp;temperature;humidity
44121;DHT22;29783;52.504;13.478;2022-12-18T10:26:25;-3273.10;90.50
44121;DHT22;29783;52.504;13.478;2022-12-18T14:58:02;-3272.90;91.30
44121;DHT22;29783;52.504;13.478;2022-12-18T16:46:40;-3272.80;90.70
44121;DHT22;29783;52.504;13.478;2022-12-18T16:56:30;-3272.80;90.70
44121;DHT22;29783;52.504;13.478;2022-12-18T16:59:00;-3272.80;90.70
44121;DHT22;29783;52.504;13.478;2022-12-18T17:01:29;-3272.70;90.80
44121;DHT22;29783;52.504;13.478;2022-12-18T17:04:02;-3272.70;90.90
44121;DHT22;29783;52.504;13.478;2022-12-18T17:06:31;-3272.70;90.90
44121;DHT22;29783;52.504;13.478;2022-12-18T17:09:02;-3272.70;91.00
44121;DHT22;29783;52.504;13.478;2022-12-18T17:11:30;-3272.70;91.00
44121;DHT22;29783;52.504;13.478;2022-12-18T17:14:07;-3272.60;91.10
44121;DHT22;29783;52.504;13.478;2022-12-18T17:16:33;-3272.60;91.20
44121;DHT22;29783;52.504;13.478;2022-12-18T17:18:59;-3272.60;91.30
44121;DHT22;29783;52.504;13.478;2022-12-18T17:21:25;-3272.50;91.20
44121;DHT22;29783;52.504;13.478;2022-12-18T17:23:50;-3272.50;91.30
44121;DHT22;29783;52.504;13.478;2022-12-18T17:26:16;-3272.50;91.40
44121;DHT22;29783;52.504;13.478;2022-12-18T17:28:42;-3272.40;91.50
44121;DHT22;29783;52.504;13.478;2022-12-18T17:31:16;-3272.50;91.60
44121;DHT22;29783;52.504;13.478;2022-12-18T17:33:43;-3272.30;91.50
44121;DHT22;29783;52.504;13.478;2022-12-18T17:36:09;-3272.30;91.60
44121;DHT22;29783;52.504;13.478;2022-12-18T17:38:35;-3272.30;91.80
44121;DHT22;29783;52.504;13.478;2022-12-18T17:41:09;-3272.20;91.90
44121;DHT22;29783;52.504;13.478;2022-12-18T17:43:35;-3272.20;91.90
44121;DHT22;29783;52.504;13.478;2022-12-18T17:46:05;-3272.20;92.10
44121;DHT22;29783;52.504;13.478;2022-12-18T17:48:31;-3272.20;92.10
44121;DHT22;29783;52.504;13.478;2022-12-18T17:51:03;-3272.20;92.00
44121;DHT22;29783;52.504;13.478;2022-12-18T17:53:41;-3272.20;92.00
44121;DHT22;29783;52.504;13.478;2022-12-18T17:56:14;-3272.20;92.10
44121;DHT22;29783;52.504;13.478;2022-12-18T17:58:41;-3272.30;92.00
44121;DHT22;29783;52.504;13.478;2022-12-18T18:01:17;-3272.20;92.00
44121;DHT22;29783;52.504;13.478;2022-12-18T18:10:56;-3272.20;91.80
44121;DHT22;29783;52.504;13.478;2022-12-18T18:14:04;-3272.20;91.90
44121;DHT22;29783;52.504;13.478;2022-12-18T18:16:37;-3272.10;91.80
44121;DHT22;29783;52.504;13.478;2022-12-18T18:19:05;-3272.00;91.90
44121;DHT22;29783;52.504;13.478;2022-12-18T18:21:36;-3272.00;91.90
44121;DHT22;29783;52.504;13.478;2022-12-18T18:24:17;-3272.00;91.80
44121;DHT22;29783;52.504;13.478;2022-12-18T18:30:41;-3272.00;92.00
44121;DHT22;29783;52.504;13.478;2022-12-18T18:33:11;-3272.00;91.90
44121;DHT22;29783;52.504;13.478;2022-12-18T18:35:45;-3272.00;91.90
44121;DHT22;29783;52.504;13.478;2022-12-18T18:41:45;-3271.90;91.80
44121;DHT22;29783;52.504;13.478;2022-12-18T18:44:12;-3271.90;91.90
44121;DHT22;29783;52.504;13.478;2022-12-18T18:46:38;-3271.80;91.80
44121;DHT22;29783;52.504;13.478;2022-12-18T18:49:07;-3271.80;91.80
44121;DHT22;29783;52.504;13.478;2022-12-18T18:51:42;-3271.80;91.80
44121;DHT22;29783;52.504;13.478;2022-12-18T18:54:09;-3271.80;91.90
44121;DHT22;29783;52.504;13.478;2022-12-18T18:56:57;-3271.80;91.80
44121;DHT22;29783;52.504;13.478;2022-12-18T18:59:26;-3271.80;91.80
44121;DHT22;29783;52.504;13.478;2022-12-18T19:01:59;-3271.80;91.70
44121;DHT22;29783;52.504;13.478;2022-12-18T19:05:18;-3271.80;91.70
44121;DHT22;29783;52.504;13.478;2022-12-18T19:07:59;-3271.80;91.60
44121;DHT22;29783;52.504;13.478;2022-12-18T19:10:33;-3271.80;91.60
44121;DHT22;29783;52.504;13.478;2022-12-18T19:13:13;-3271.70;91.50
44121;DHT22;29783;52.504;13.478;2022-12-18T19:15:55;-3271.70;91.60
44121;DHT22;29783;52.504;13.478;2022-12-18T19:18:37;-3271.80;91.60
44121;DHT22;29783;52.504;13.478;2022-12-18T19:21:06;-3271.80;91.40
44121;DHT22;29783;52.504;13.478;2022-12-18T19:23:41;-3271.80;91.40
44121;DHT22;29783;52.504;13.478;2022-12-18T19:26:31;-3271.80;91.30
44121;DHT22;29783;52.504;13.478;2022-12-18T19:36:00;-3271.90;91.00
44121;DHT22;29783;52.504;13.478;2022-12-18T19:38:34;-3271.90;90.90
44121;DHT22;29783;52.504;13.478;2022-12-18T19:41:03;-3271.90;90.80
44121;DHT22;29783;52.504;13.478;2022-12-18T19:43:30;-3271.90;90.60
44121;DHT22;29783;52.504;13.478;2022-12-18T19:45:56;-3271.90;90.40
44121;DHT22;29783;52.504;13.478;2022-12-18T19:48:34;-3271.90;90.30
44121;DHT22;29783;52.504;13.478;2022-12-18T19:51:10;-3271.90;90.40
44121;DHT22;29783;52.504;13.478;2022-12-18T19:53:48;-3271.90;90.30
44121;DHT22;29783;52.504;13.478;2022-12-18T19:56:20;-3271.80;90.30
44121;DHT22;29783;52.504;13.478;2022-12-18T20:09:03;-3271.80;90.60
44121;DHT22;29783;52.504;13.478;2022-12-18T20:11:39;-3271.80;90.30
44121;DHT22;29783;52.504;13.478;2022-12-18T20:14:26;-3271.80;90.30
44121;DHT22;29783;52.504;13.478;2022-12-18T20:16:53;-3271.80;90.30
44121;DHT22;29783;52.504;13.478;2022-12-18T20:19:38;-3271.80;90.20
44121;DHT22;29783;52.504;13.478;2022-12-18T20:22:04;-3271.80;90.20
44121;DHT22;29783;52.504;13.478;2022-12-18T20:24:33;-3271.80;90.20
44121;DHT22;29783;52.504;13.478;2022-12-18T20:27:21;-3271.80;90.20
44121;DHT22;29783;52.504;13.478;2022-12-18T20:33:54;-3271.80;90.20
44121;DHT22;29783;52.504;13.478;2022-12-18T20:36:39;-3271.90;90.20
44121;DHT22;29783;52.504;13.478;2022-12-18T20:39:08;-3271.90;90.10
44121;DHT22;29783;52.504;13.478;2022-12-18T20:42:14;-3271.80;90.10
44121;DHT22;29783;52.504;13.478;2022-12-18T20:51:23;-3271.90;89.80
44121;DHT22;29783;52.504;13.478;2022-12-18T20:54:00;-3272.00;89.80
44121;DHT22;29783;52.504;13.478;2022-12-18T20:56:38;-3272.00;89.80
44121;DHT22;29783;52.504;13.478;2022-12-18T21:02:22;-3272.00;89.50
44121;DHT22;29783;52.504;13.478;2022-12-18T21:04:49;-3272.00;89.30
44121;DHT22;29783;52.504;13.478;2022-12-18T21:14:07;-3272.00;89.40
44121;DHT22;29783;52.504;13.478;2022-12-18T21:20:48;-3272.00;89.30
44121;DHT22;29783;52.504;13.478;2022-12-18T21:30:56;-3272.00;89.20
44121;DHT22;29783;52.504;13.478;2022-12-18T22:21:42;-3272.20;88.40
